sensor_id;sensor_type;location;lat;lon;timestamp;P1;durP1;ratioP1;P2;durP2;ratioP2
62687;SDS011;48752;51.056;17.056;2023-05-07T00:01:11;6.20;;;5.20;;
62687;SDS011;48752;51.056;17.056;2023-05-07T00:03:36;6.68;;;5.68;;
62687;SDS011;48752;51.056;17.056;2023-05-07T00:06:03;8.65;;;6.00;;
62687;SDS011;48752;51.056;17.056;2023-05-07T00:08:28;8.82;;;5.88;;
62687;SDS011;48752;51.056;17.056;2023-05-07T00:10:54;6.22;;;5.25;;
62687;SDS011;48752;51.056;17.056;2023-05-07T00:13:21;8.65;;;5.90;;
62687;SDS011;48752;51.056;17.056;2023-05-07T00:15:46;7.07;;;5.43;;
62687;SDS011;48752;51.056;17.056;2023-05-07T00:18:18;9.52;;;5.32;;
62687;SDS011;48752;51.056;17.056;2023-05-07T00:20:54;7.13;;;5.10;;
62687;SDS011;48752;51.056;17.056;2023-05-07T00:25:56;8.35;;;5.28;;
62687;SDS011;48752;51.056;17.056;2023-05-07T00:28:21;6.90;;;4.82;;
62687;SDS011;48752;51.056;17.056;2023-05-07T00:30:53;10.35;;;4.95;;
62687;SDS011;48752;51.056;17.056;2023-05-07T00:33:26;7.60;;;4.93;;
62687;SDS011;48752;51.056;17.056;2023-05-07T00:35:52;10.00;;;5.53;;
62687;SDS011;48752;51.056;17.056;2023-05-07T00:38:19;9.40;;;5.25;;
62687;SDS011;48752;51.056;17.056;2023-05-07T00:43:13;7.35;;;5.43;;
62687;SDS011;48752;51.056;17.056;2023-05-07T00:45:45;6.40;;;4.75;;
62687;SDS011;48752;51.056;17.056;2023-05-07T00:48:11;9.07;;;4.78;;
62687;SDS011;48752;51.056;17.056;2023-05-07T00:50:37;6.15;;;5.35;;
62687;SDS011;48752;51.056;17.056;2023-05-07T00:53:04;8.82;;;4.88;;
62687;SDS011;48752;51.056;17.056;2023-05-07T00:55:37;8.23;;;4.95;;
62687;SDS011;48752;51.056;17.056;2023-05-07T00:58:04;4.45;;;4.03;;
62687;SDS011;48752;51.056;17.056;2023-05-07T01:00:31;10.13;;;4.75;;
62687;SDS011;48752;51.056;17.056;2023-05-07T01:02:57;7.22;;;4.78;;
62687;SDS011;48752;51.056;17.056;2023-05-07T01:05:24;5.38;;;4.43;;
62687;SDS011;48752;51.056;17.056;2023-05-07T01:07:51;9.20;;;4.22;;
62687;SDS011;48752;51.056;17.056;2023-05-07T01:10:26;6.60;;;4.72;;
62687;SDS011;48752;51.056;17.056;2023-05-07T01:12:53;6.85;;;5.63;;
62687;SDS011;48752;51.056;17.056;2023-05-07T01:15:20;7.95;;;5.05;;
62687;SDS011;48752;51.056;17.056;2023-05-07T01:17:45;7.75;;;4.82;;
62687;SDS011;48752;51.056;17.056;2023-05-07T01:20:13;5.80;;;4.95;;
62687;SDS011;48752;51.056;17.056;2023-05-07T01:22:40;5.85;;;4.30;;
62687;SDS011;48752;51.056;17.056;2023-05-07T01:25:06;7.20;;;5.15;;
62687;SDS011;48752;51.056;17.056;2023-05-07T01:27:32;10.13;;;5.50;;
62687;SDS011;48752;51.056;17.056;2023-05-07T01:30:01;5.35;;;4.55;;
62687;SDS011;48752;51.056;17.056;2023-05-07T01:32:32;7.20;;;5.30;;
62687;SDS011;48752;51.056;17.056;2023-05-07T01:35:01;8.57;;;5.88;;
62687;SDS011;48752;51.056;17.056;2023-05-07T01:37:28;7.10;;;5.15;;
62687;SDS011;48752;51.056;17.056;2023-05-07T01:39:54;8.25;;;6.40;;
62687;SDS011;48752;51.056;17.056;2023-05-07T01:42:21;7.65;;;5.55;;
62687;SDS011;48752;51.056;17.056;2023-05-07T01:44:47;10.23;;;5.93;;
62687;SDS011;48752;51.056;17.056;2023-05-07T01:47:13;8.30;;;6.38;;
62687;SDS011;48752;51.056;17.056;2023-05-07T01:49:41;8.88;;;5.88;;
62687;SDS011;48752;51.056;17.056;2023-05-07T01:52:09;8.23;;;6.05;;
62687;SDS011;48752;51.056;17.056;2023-05-07T01:54:37;7.20;;;5.53;;
62687;SDS011;48752;51.056;17.056;2023-05-07T01:57:04;8.40;;;6.28;;
62687;SDS011;48752;51.056;17.056;2023-05-07T01:59:29;7.80;;;4.90;;
62687;SDS011;48752;51.056;17.056;2023-05-07T02:01:56;7.80;;;6.03;;
62687;SDS011;48752;51.056;17.056;2023-05-07T02:04:24;6.80;;;5.75;;
62687;SDS011;48752;51.056;17.056;2023-05-07T02:06:50;8.25;;;6.55;;
62687;SDS011;48752;51.056;17.056;2023-05-07T02:09:16;7.30;;;6.03;;
62687;SDS011;48752;51.056;17.056;2023-05-07T02:14:10;11.30;;;6.75;;
62687;SDS011;48752;51.056;17.056;2023-05-07T02:16:37;7.95;;;5.57;;
62687;SDS011;48752;51.056;17.056;2023-05-07T02:19:03;8.93;;;5.55;;
62687;SDS011;48752;51.056;17.056;2023-05-07T02:21:29;7.65;;;5.38;;
62687;SDS011;48752;51.056;17.056;2023-05-07T02:24:09;7.25;;;5.15;;
62687;SDS011;48752;51.056;17.056;2023-05-07T02:26:37;7.32;;;4.60;;
62687;SDS011;48752;51.056;17.056;2023-05-07T02:29:02;7.80;;;5.72;;
62687;SDS011;48752;51.056;17.056;2023-05-07T02:31:32;7.05;;;5.18;;
62687;SDS011;48752;51.056;17.056;2023-05-07T02:33:59;7.55;;;5.60;;
62687;SDS011;48752;51.056;17.056;2023-05-07T02:36:26;7.18;;;5.20;;
62687;SDS011;48752;51.056;17.056;2023-05-07T02:38:54;8.32;;;5.20;;
62687;SDS011;48752;51.056;17.056;2023-05-07T02:41:20;8.63;;;5.13;;
62687;SDS011;48752;51.056;17.056;2023-05-07T02:43:47;6.05;;;5.05;;
62687;SDS011;48752;51.056;17.056;2023-05-07T02:46:21;8.32;;;5.45;;
62687;SDS011;48752;51.056;17.056;2023-05-07T02:48:46;7.65;;;5.15;;
62687;SDS011;48752;51.056;17.056;2023-05-07T02:51:13;8.77;;;5.78;;
62687;SDS011;48752;51.056;17.056;2023-05-07T02:53:39;8.15;;;5.50;;
62687;SDS011;48752;51.056;17.056;2023-05-07T02:56:07;6.32;;;5.57;;
62687;SDS011;48752;51.056;17.056;2023-05-07T02:58:41;8.35;;;5.60;;
62687;SDS011;48752;51.056;17.056;2023-05-07T03:01:12;7.75;;;5.60;;
62687;SDS011;48752;51.056;17.056;2023-05-07T03:03:41;6.03;;;5.15;;
62687;SDS011;48752;51.056;17.056;2023-05-07T03:06:07;10.50;;;5.25;;
62687;SDS011;48752;51.056;17.056;2023-05-07T03:08:34;8.10;;;5.30;;
62687;SDS011;48752;51.056;17.056;2023-05-07T03:11:00;12.15;;;5.47;;
62687;SDS011;48752;51.056;17.056;2023-05-07T03:13:26;8.98;;;5.57;;
62687;SDS011;48752;51.056;17.056;2023-05-07T03:15:51;8.15;;;5.15;;
62687;SDS011;48752;51.056;17.056;2023-05-07T03:18:17;11.13;;;5.72;;
62687;SDS011;48752;51.056;17.056;2023-05-07T03:20:43;9.35;;;5.35;;
62687;SDS011;48752;51.056;17.056;2023-05-07T03:23:09;6.70;;;5.05;;
62687;SDS011;48752;51.056;17.056;2023-05-07T03:25:34;7.90;;;5.22;;
62687;SDS011;48752;51.056;17.056;2023-05-07T03:28:00;7.43;;;5.05;;
62687;SDS011;48752;51.056;17.056;2023-05-07T03:30:26;8.45;;;5.30;;
62687;SDS011;48752;51.056;17.056;2023-05-07T03:32:51;6.75;;;5.47;;
62687;SDS011;48752;51.056;17.056;2023-05-07T03:35:19;10.80;;;6.18;;
62687;SDS011;48752;51.056;17.056;2023-05-07T03:37:46;7.45;;;5.28;;
62687;SDS011;48752;51.056;17.056;2023-05-07T03:40:11;9.52;;;5.35;;
62687;SDS011;48752;51.056;17.056;2023-05-07T03:42:40;7.68;;;5.72;;
62687;SDS011;48752;51.056;17.056;2023-05-07T03:45:07;9.60;;;5.65;;
62687;SDS011;48752;51.056;17.056;2023-05-07T03:47:34;7.13;;;5.35;;
62687;SDS011;48752;51.056;17.056;2023-05-07T03:50:20;7.00;;;4.90;;
62687;SDS011;48752;51.056;17.056;2023-05-07T03:52:45;5.88;;;4.60;;
62687;SDS011;48752;51.056;17.056;2023-05-07T03:55:12;9.77;;;5.47;;
62687;SDS011;48752;51.056;17.056;2023-05-07T03:57:40;7.03;;;4.50;;
62687;SDS011;48752;51.056;17.056;2023-05-07T04:00:07;6.57;;;4.15;;
62687;SDS011;48752;51.056;17.056;2023-05-07T04:02:34;9.18;;;4.82;;
62687;SDS011;48752;51.056;17.056;2023-05-07T04:05:00;6.03;;;4.03;;
62687;SDS011;48752;51.056;17.056;2023-05-07T04:07:26;6.43;;;4.22;;
62687;SDS011;48752;51.056;17.056;2023-05-07T04:09:52;8.95;;;5.07;;
62687;SDS011;48752;51.056;17.056;2023-05-07T04:12:17;6.97;;;4.75;;
62687;SDS011;48752;51.056;17.056;2023-05-07T04:14:45;5.22;;;4.22;;
62687;SDS011;48752;51.056;17.056;2023-05-07T04:17:10;6.55;;;4.45;;
62687;SDS011;48752;51.056;17.056;2023-05-07T04:19:36;6.15;;;4.05;;
62687;SDS011;48752;51.056;17.056;2023-05-07T04:22:01;8.25;;;4.05;;
62687;SDS011;48752;51.056;17.056;2023-05-07T04:24:27;6.55;;;4.25;;
62687;SDS011;48752;51.056;17.056;2023-05-07T04:26:53;6.20;;;3.92;;
62687;SDS011;48752;51.056;17.056;2023-05-07T04:29:21;6.10;;;4.05;;
62687;SDS011;48752;51.056;17.056;2023-05-07T04:31:47;5.65;;;4.90;;
62687;SDS011;48752;51.056;17.056;2023-05-07T04:34:14;4.57;;;3.70;;
62687;SDS011;48752;51.056;17.056;2023-05-07T04:36:42;9.95;;;4.15;;
62687;SDS011;48752;51.056;17.056;2023-05-07T04:39:08;5.03;;;3.72;;
62687;SDS011;48752;51.056;17.056;2023-05-07T04:41:35;4.15;;;3.50;;
62687;SDS011;48752;51.056;17.056;2023-05-07T04:44:03;5.65;;;3.83;;
62687;SDS011;48752;51.056;17.056;2023-05-07T04:46:32;5.75;;;4.50;;
62687;SDS011;48752;51.056;17.056;2023-05-07T04:48:58;5.93;;;3.97;;
62687;SDS011;48752;51.056;17.056;2023-05-07T04:51:24;4.70;;;4.07;;
62687;SDS011;48752;51.056;17.056;2023-05-07T04:53:49;9.77;;;4.28;;
62687;SDS011;48752;51.056;17.056;2023-05-07T04:56:15;4.72;;;3.70;;
62687;SDS011;48752;51.056;17.056;2023-05-07T04:58:43;6.20;;;3.83;;
62687;SDS011;48752;51.056;17.056;2023-05-07T05:01:10;4.15;;;3.75;;
62687;SDS011;48752;51.056;17.056;2023-05-07T05:03:36;5.03;;;3.47;;
62687;SDS011;48752;51.056;17.056;2023-05-07T05:06:02;4.85;;;3.58;;
62687;SDS011;48752;51.056;17.056;2023-05-07T05:08:29;4.40;;;3.50;;
62687;SDS011;48752;51.056;17.056;2023-05-07T05:10:55;3.13;;;2.70;;
62687;SDS011;48752;51.056;17.056;2023-05-07T05:13:24;5.97;;;2.88;;
62687;SDS011;48752;51.056;17.056;2023-05-07T05:15:50;5.25;;;2.97;;
62687;SDS011;48752;51.056;17.056;2023-05-07T05:18:16;3.58;;;2.97;;
62687;SDS011;48752;51.056;17.056;2023-05-07T05:20:42;4.43;;;2.85;;
62687;SDS011;48752;51.056;17.056;2023-05-07T05:23:08;6.00;;;3.08;;
62687;SDS011;48752;51.056;17.056;2023-05-07T05:25:34;4.68;;;3.15;;
62687;SDS011;48752;51.056;17.056;2023-05-07T05:28:04;9.27;;;4.05;;
62687;SDS011;48752;51.056;17.056;2023-05-07T05:30:30;4.18;;;3.78;;
62687;SDS011;48752;51.056;17.056;2023-05-07T05:32:56;6.60;;;3.35;;
62687;SDS011;48752;51.056;17.056;2023-05-07T05:35:24;4.65;;;3.60;;
62687;SDS011;48752;51.056;17.056;2023-05-07T05:37:50;3.80;;;3.20;;
62687;SDS011;48752;51.056;17.056;2023-05-07T05:40:16;6.13;;;4.22;;
62687;SDS011;48752;51.056;17.056;2023-05-07T05:42:42;6.90;;;4.38;;
62687;SDS011;48752;51.056;17.056;2023-05-07T05:45:09;7.55;;;4.40;;
62687;SDS011;48752;51.056;17.056;2023-05-07T05:47:37;4.70;;;4.20;;
62687;SDS011;48752;51.056;17.056;2023-05-07T05:50:04;7.25;;;4.78;;
62687;SDS011;48752;51.056;17.056;2023-05-07T05:52:37;6.22;;;4.32;;
62687;SDS011;48752;51.056;17.056;2023-05-07T05:55:04;7.53;;;4.18;;
62687;SDS011;48752;51.056;17.056;2023-05-07T05:57:32;4.72;;;4.10;;
62687;SDS011;48752;51.056;17.056;2023-05-07T05:59:58;3.95;;;3.50;;
62687;SDS011;48752;51.056;17.056;2023-05-07T06:02:25;4.25;;;3.17;;
62687;SDS011;48752;51.056;17.056;2023-05-07T06:04:53;3.70;;;3.40;;
62687;SDS011;48752;51.056;17.056;2023-05-07T06:07:20;6.00;;;3.47;;
62687;SDS011;48752;51.056;17.056;2023-05-07T06:09:51;4.45;;;3.67;;
62687;SDS011;48752;51.056;17.056;2023-05-07T06:12:17;4.57;;;3.25;;
62687;SDS011;48752;51.056;17.056;2023-05-07T06:14:44;3.80;;;3.42;;
62687;SDS011;48752;51.056;17.056;2023-05-07T06:17:09;3.95;;;3.10;;
62687;SDS011;48752;51.056;17.056;2023-05-07T06:19:35;3.97;;;3.58;;
62687;SDS011;48752;51.056;17.056;2023-05-07T06:22:03;3.85;;;3.40;;
62687;SDS011;48752;51.056;17.056;2023-05-07T06:24:31;5.20;;;3.45;;
62687;SDS011;48752;51.056;17.056;2023-05-07T06:26:58;3.47;;;3.17;;
62687;SDS011;48752;51.056;17.056;2023-05-07T06:29:25;5.43;;;3.13;;
62687;SDS011;48752;51.056;17.056;2023-05-07T06:31:54;4.82;;;2.88;;
62687;SDS011;48752;51.056;17.056;2023-05-07T06:34:20;4.47;;;2.88;;
62687;SDS011;48752;51.056;17.056;2023-05-07T06:36:46;5.03;;;2.90;;
62687;SDS011;48752;51.056;17.056;2023-05-07T06:39:11;3.13;;;2.83;;
62687;SDS011;48752;51.056;17.056;2023-05-07T06:41:37;4.78;;;3.60;;
62687;SDS011;48752;51.056;17.056;2023-05-07T06:44:05;4.07;;;2.50;;
62687;SDS011;48752;51.056;17.056;2023-05-07T06:46:32;3.25;;;2.40;;
62687;SDS011;48752;51.056;17.056;2023-05-07T06:48:57;3.20;;;2.75;;
62687;SDS011;48752;51.056;17.056;2023-05-07T06:51:28;4.43;;;2.90;;
62687;SDS011;48752;51.056;17.056;2023-05-07T06:53:54;3.97;;;3.05;;
62687;SDS011;48752;51.056;17.056;2023-05-07T06:56:21;4.85;;;3.30;;
62687;SDS011;48752;51.056;17.056;2023-05-07T06:58:49;4.47;;;3.70;;
62687;SDS011;48752;51.056;17.056;2023-05-07T07:01:15;4.65;;;3.10;;
62687;SDS011;48752;51.056;17.056;2023-05-07T07:03:41;3.63;;;3.33;;
62687;SDS011;48752;51.056;17.056;2023-05-07T07:06:07;2.90;;;2.65;;
62687;SDS011;48752;51.056;17.056;2023-05-07T07:08:34;4.03;;;3.03;;
62687;SDS011;48752;51.056;17.056;2023-05-07T07:11:00;4.20;;;2.70;;
62687;SDS011;48752;51.056;17.056;2023-05-07T07:13:26;4.75;;;2.85;;
62687;SDS011;48752;51.056;17.056;2023-05-07T07:15:52;4.28;;;2.45;;
62687;SDS011;48752;51.056;17.056;2023-05-07T07:18:20;2.70;;;2.50;;
62687;SDS011;48752;51.056;17.056;2023-05-07T07:20:45;3.55;;;2.65;;
62687;SDS011;48752;51.056;17.056;2023-05-07T07:23:11;3.10;;;2.80;;
62687;SDS011;48752;51.056;17.056;2023-05-07T07:25:37;3.13;;;2.83;;
62687;SDS011;48752;51.056;17.056;2023-05-07T07:28:06;4.03;;;2.83;;
62687;SDS011;48752;51.056;17.056;2023-05-07T07:30:32;3.33;;;2.20;;
62687;SDS011;48752;51.056;17.056;2023-05-07T07:32:59;3.05;;;2.70;;
62687;SDS011;48752;51.056;17.056;2023-05-07T07:35:45;4.32;;;2.65;;
62687;SDS011;48752;51.056;17.056;2023-05-07T07:38:12;3.03;;;2.72;;
62687;SDS011;48752;51.056;17.056;2023-05-07T07:40:39;3.20;;;2.90;;
62687;SDS011;48752;51.056;17.056;2023-05-07T07:43:06;3.45;;;3.15;;
62687;SDS011;48752;51.056;17.056;2023-05-07T07:45:32;4.15;;;2.83;;
62687;SDS011;48752;51.056;17.056;2023-05-07T07:47:59;3.28;;;2.60;;
62687;SDS011;48752;51.056;17.056;2023-05-07T07:50:24;4.85;;;2.53;;
62687;SDS011;48752;51.056;17.056;2023-05-07T07:52:49;3.05;;;2.60;;
62687;SDS011;48752;51.056;17.056;2023-05-07T07:55:19;3.25;;;2.95;;
62687;SDS011;48752;51.056;17.056;2023-05-07T07:57:52;4.13;;;3.10;;
62687;SDS011;48752;51.056;17.056;2023-05-07T08:00:17;4.88;;;3.05;;
62687;SDS011;48752;51.056;17.056;2023-05-07T08:02:43;3.83;;;2.67;;
62687;SDS011;48752;51.056;17.056;2023-05-07T08:05:08;4.68;;;3.38;;
62687;SDS011;48752;51.056;17.056;2023-05-07T08:07:34;3.72;;;3.42;;
62687;SDS011;48752;51.056;17.056;2023-05-07T08:10:02;4.38;;;3.60;;
62687;SDS011;48752;51.056;17.056;2023-05-07T08:12:30;5.95;;;4.00;;
62687;SDS011;48752;51.056;17.056;2023-05-07T08:15:03;6.68;;;4.25;;
62687;SDS011;48752;51.056;17.056;2023-05-07T08:17:31;5.43;;;4.40;;
62687;SDS011;48752;51.056;17.056;2023-05-07T08:19:56;6.05;;;4.38;;
62687;SDS011;48752;51.056;17.056;2023-05-07T08:22:23;5.88;;;4.50;;
62687;SDS011;48752;51.056;17.056;2023-05-07T08:24:49;4.63;;;3.53;;
62687;SDS011;48752;51.056;17.056;2023-05-07T08:27:21;6.40;;;4.38;;
62687;SDS011;48752;51.056;17.056;2023-05-07T08:29:48;5.03;;;3.95;;
62687;SDS011;48752;51.056;17.056;2023-05-07T08:32:15;5.13;;;4.63;;
62687;SDS011;48752;51.056;17.056;2023-05-07T08:34:40;5.75;;;4.35;;
62687;SDS011;48752;51.056;17.056;2023-05-07T08:37:08;4.78;;;3.97;;
62687;SDS011;48752;51.056;17.056;2023-05-07T08:39:33;5.13;;;4.53;;
62687;SDS011;48752;51.056;17.056;2023-05-07T08:42:00;5.50;;;4.75;;
62687;SDS011;48752;51.056;17.056;2023-05-07T08:44:28;6.28;;;4.30;;
62687;SDS011;48752;51.056;17.056;2023-05-07T08:47:06;5.85;;;4.13;;
62687;SDS011;48752;51.056;17.056;2023-05-07T08:49:33;5.32;;;3.67;;
62687;SDS011;48752;51.056;17.056;2023-05-07T08:51:59;4.50;;;4.10;;
62687;SDS011;48752;51.056;17.056;2023-05-07T08:54:26;6.00;;;4.47;;
62687;SDS011;48752;51.056;17.056;2023-05-07T08:56:53;4.50;;;4.00;;
62687;SDS011;48752;51.056;17.056;2023-05-07T08:59:20;7.15;;;5.50;;
62687;SDS011;48752;51.056;17.056;2023-05-07T09:01:46;6.70;;;5.40;;
62687;SDS011;48752;51.056;17.056;2023-05-07T09:04:13;9.23;;;5.18;;
62687;SDS011;48752;51.056;17.056;2023-05-07T09:06:41;7.28;;;4.95;;
62687;SDS011;48752;51.056;17.056;2023-05-07T09:09:07;6.28;;;4.70;;
62687;SDS011;48752;51.056;17.056;2023-05-07T09:11:32;7.65;;;5.00;;
62687;SDS011;48752;51.056;17.056;2023-05-07T09:13:59;7.63;;;4.60;;
62687;SDS011;48752;51.056;17.056;2023-05-07T09:16:30;5.07;;;4.30;;
62687;SDS011;48752;51.056;17.056;2023-05-07T09:18:57;7.80;;;5.35;;
62687;SDS011;48752;51.056;17.056;2023-05-07T09:21:25;7.28;;;5.03;;
62687;SDS011;48752;51.056;17.056;2023-05-07T09:23:54;10.63;;;4.60;;
62687;SDS011;48752;51.056;17.056;2023-05-07T09:26:24;6.38;;;4.88;;
62687;SDS011;48752;51.056;17.056;2023-05-07T09:28:50;6.35;;;4.50;;
62687;SDS011;48752;51.056;17.056;2023-05-07T09:31:17;6.25;;;4.70;;
62687;SDS011;48752;51.056;17.056;2023-05-07T09:33:44;5.20;;;3.88;;
62687;SDS011;48752;51.056;17.056;2023-05-07T09:36:09;8.07;;;3.88;;
62687;SDS011;48752;51.056;17.056;2023-05-07T09:38:36;8.43;;;4.25;;
62687;SDS011;48752;51.056;17.056;2023-05-07T09:41:16;6.23;;;4.47;;
62687;SDS011;48752;51.056;17.056;2023-05-07T09:43:42;4.38;;;3.97;;
62687;SDS011;48752;51.056;17.056;2023-05-07T09:46:14;5.22;;;4.20;;
62687;SDS011;48752;51.056;17.056;2023-05-07T09:48:43;7.03;;;4.10;;
62687;SDS011;48752;51.056;17.056;2023-05-07T09:51:34;5.05;;;4.45;;
62687;SDS011;48752;51.056;17.056;2023-05-07T09:53:57;6.70;;;4.50;;
62687;SDS011;48752;51.056;17.056;2023-05-07T09:56:26;5.18;;;4.70;;
62687;SDS011;48752;51.056;17.056;2023-05-07T09:58:54;6.55;;;5.45;;
62687;SDS011;48752;51.056;17.056;2023-05-07T10:01:22;6.90;;;5.47;;
62687;SDS011;48752;51.056;17.056;2023-05-07T10:03:52;5.72;;;4.25;;
62687;SDS011;48752;51.056;17.056;2023-05-07T10:06:19;6.25;;;4.97;;
62687;SDS011;48752;51.056;17.056;2023-05-07T10:08:46;6.65;;;4.82;;
62687;SDS011;48752;51.056;17.056;2023-05-07T10:11:12;4.82;;;4.10;;
62687;SDS011;48752;51.056;17.056;2023-05-07T10:13:38;4.80;;;4.30;;
62687;SDS011;48752;51.056;17.056;2023-05-07T10:16:05;4.22;;;3.83;;
62687;SDS011;48752;51.056;17.056;2023-05-07T10:18:31;4.03;;;3.25;;
62687;SDS011;48752;51.056;17.056;2023-05-07T10:23:37;3.85;;;3.10;;
62687;SDS011;48752;51.056;17.056;2023-05-07T10:26:07;4.73;;;3.83;;
62687;SDS011;48752;51.056;17.056;2023-05-07T10:28:35;3.72;;;3.03;;
62687;SDS011;48752;51.056;17.056;2023-05-07T10:33:33;3.95;;;3.50;;
62687;SDS011;48752;51.056;17.056;2023-05-07T10:36:01;5.22;;;3.47;;
62687;SDS011;48752;51.056;17.056;2023-05-07T10:38:39;5.95;;;3.00;;
62687;SDS011;48752;51.056;17.056;2023-05-07T10:41:07;4.47;;;3.40;;
62687;SDS011;48752;51.056;17.056;2023-05-07T10:43:43;3.25;;;2.95;;
62687;SDS011;48752;51.056;17.056;2023-05-07T10:46:11;3.63;;;3.33;;
62687;SDS011;48752;51.056;17.056;2023-05-07T10:51:29;4.28;;;3.58;;
62687;SDS011;48752;51.056;17.056;2023-05-07T10:56:38;6.13;;;3.13;;
62687;SDS011;48752;51.056;17.056;2023-05-07T11:02:04;5.13;;;3.70;;
62687;SDS011;48752;51.056;17.056;2023-05-07T11:04:32;4.95;;;4.05;;
62687;SDS011;48752;51.056;17.056;2023-05-07T11:17:55;3.65;;;3.05;;
62687;SDS011;48752;51.056;17.056;2023-05-07T11:26:00;4.40;;;3.50;;
62687;SDS011;48752;51.056;17.056;2023-05-07T11:28:41;5.20;;;3.53;;
62687;SDS011;48752;51.056;17.056;2023-05-07T11:31:08;4.75;;;3.65;;
62687;SDS011;48752;51.056;17.056;2023-05-07T11:33:34;3.72;;;3.35;;
62687;SDS011;48752;51.056;17.056;2023-05-07T11:36:02;3.38;;;3.05;;
62687;SDS011;48752;51.056;17.056;2023-05-07T11:38:36;3.40;;;2.92;;
62687;SDS011;48752;51.056;17.056;2023-05-07T11:41:09;5.10;;;3.40;;
62687;SDS011;48752;51.056;17.056;2023-05-07T11:43:35;5.25;;;3.17;;
62687;SDS011;48752;51.056;17.056;2023-05-07T11:46:10;3.70;;;3.13;;
62687;SDS011;48752;51.056;17.056;2023-05-07T11:48:38;4.22;;;3.38;;
62687;SDS011;48752;51.056;17.056;2023-05-07T11:51:22;4.20;;;3.42;;
62687;SDS011;48752;51.056;17.056;2023-05-07T11:53:51;4.45;;;3.25;;
62687;SDS011;48752;51.056;17.056;2023-05-07T11:56:19;4.20;;;3.08;;
62687;SDS011;48752;51.056;17.056;2023-05-07T11:58:45;3.90;;;3.03;;
62687;SDS011;48752;51.056;17.056;2023-05-07T12:01:13;3.83;;;3.08;;
62687;SDS011;48752;51.056;17.056;2023-05-07T12:03:40;3.33;;;2.88;;
62687;SDS011;48752;51.056;17.056;2023-05-07T12:06:11;4.83;;;3.00;;
62687;SDS011;48752;51.056;17.056;2023-05-07T12:08:39;3.95;;;3.20;;
62687;SDS011;48752;51.056;17.056;2023-05-07T12:13:50;5.78;;;3.88;;
62687;SDS011;48752;51.056;17.056;2023-05-07T12:16:17;3.70;;;3.40;;
62687;SDS011;48752;51.056;17.056;2023-05-07T12:18:43;4.65;;;3.22;;
62687;SDS011;48752;51.056;17.056;2023-05-07T12:21:09;6.45;;;3.58;;
62687;SDS011;48752;51.056;17.056;2023-05-07T12:23:36;4.63;;;3.55;;
62687;SDS011;48752;51.056;17.056;2023-05-07T12:26:03;4.60;;;3.50;;
62687;SDS011;48752;51.056;17.056;2023-05-07T12:28:38;3.63;;;2.90;;
62687;SDS011;48752;51.056;17.056;2023-05-07T12:31:04;3.60;;;3.28;;
62687;SDS011;48752;51.056;17.056;2023-05-07T12:33:30;3.47;;;3.17;;
62687;SDS011;48752;51.056;17.056;2023-05-07T12:35:58;3.53;;;3.00;;
62687;SDS011;48752;51.056;17.056;2023-05-07T12:38:34;4.28;;;3.15;;
62687;SDS011;48752;51.056;17.056;2023-05-07T12:41:01;3.33;;;2.80;;
62687;SDS011;48752;51.056;17.056;2023-05-07T12:43:28;3.38;;;3.08;;
62687;SDS011;48752;51.056;17.056;2023-05-07T12:45:56;4.45;;;3.33;;
62687;SDS011;48752;51.056;17.056;2023-05-07T12:48:24;4.03;;;3.38;;
62687;SDS011;48752;51.056;17.056;2023-05-07T12:50:56;3.58;;;3.28;;
62687;SDS011;48752;51.056;17.056;2023-05-07T12:53:27;5.13;;;3.67;;
62687;SDS011;48752;51.056;17.056;2023-05-07T12:55:58;3.25;;;2.95;;
62687;SDS011;48752;51.056;17.056;2023-05-07T12:58:29;3.63;;;3.30;;
62687;SDS011;48752;51.056;17.056;2023-05-07T13:00:57;3.88;;;2.97;;
62687;SDS011;48752;51.056;17.056;2023-05-07T13:03:32;3.83;;;3.00;;
62687;SDS011;48752;51.056;17.056;2023-05-07T13:06:02;3.80;;;3.08;;
62687;SDS011;48752;51.056;17.056;2023-05-07T13:08:35;4.47;;;3.55;;
62687;SDS011;48752;51.056;17.056;2023-05-07T13:11:03;3.97;;;3.17;;
62687;SDS011;48752;51.056;17.056;2023-05-07T13:13:40;4.25;;;3.58;;
62687;SDS011;48752;51.056;17.056;2023-05-07T13:16:08;4.50;;;3.50;;
62687;SDS011;48752;51.056;17.056;2023-05-07T13:18:42;6.28;;;3.63;;
62687;SDS011;48752;51.056;17.056;2023-05-07T13:21:11;4.28;;;3.28;;
62687;SDS011;48752;51.056;17.056;2023-05-07T13:23:38;3.85;;;3.17;;
62687;SDS011;48752;51.056;17.056;2023-05-07T13:26:04;3.92;;;3.50;;
62687;SDS011;48752;51.056;17.056;2023-05-07T13:28:30;6.28;;;3.95;;
62687;SDS011;48752;51.056;17.056;2023-05-07T13:30:58;5.10;;;3.97;;
62687;SDS011;48752;51.056;17.056;2023-05-07T13:33:25;7.50;;;3.88;;
62687;SDS011;48752;51.056;17.056;2023-05-07T13:35:51;4.32;;;3.92;;
62687;SDS011;48752;51.056;17.056;2023-05-07T13:38:17;3.95;;;3.45;;
62687;SDS011;48752;51.056;17.056;2023-05-07T13:40:44;5.32;;;3.80;;
62687;SDS011;48752;51.056;17.056;2023-05-07T13:43:10;6.15;;;4.60;;
62687;SDS011;48752;51.056;17.056;2023-05-07T13:45:38;4.70;;;3.63;;
62687;SDS011;48752;51.056;17.056;2023-05-07T13:48:06;5.43;;;4.05;;
62687;SDS011;48752;51.056;17.056;2023-05-07T13:50:33;4.50;;;3.67;;
62687;SDS011;48752;51.056;17.056;2023-05-07T13:52:58;4.20;;;3.75;;
62687;SDS011;48752;51.056;17.056;2023-05-07T13:55:25;7.85;;;3.80;;
62687;SDS011;48752;51.056;17.056;2023-05-07T13:57:56;5.45;;;3.67;;
62687;SDS011;48752;51.056;17.056;2023-05-07T14:00:35;4.22;;;3.50;;
62687;SDS011;48752;51.056;17.056;2023-05-07T14:03:01;5.35;;;3.85;;
62687;SDS011;48752;51.056;17.056;2023-05-07T14:05:28;5.72;;;4.05;;
62687;SDS011;48752;51.056;17.056;2023-05-07T14:07:54;3.92;;;3.28;;
62687;SDS011;48752;51.056;17.056;2023-05-07T14:10:21;4.72;;;3.55;;
62687;SDS011;48752;51.056;17.056;2023-05-07T14:12:47;5.72;;;3.63;;
62687;SDS011;48752;51.056;17.056;2023-05-07T14:15:14;7.57;;;5.50;;
62687;SDS011;48752;51.056;17.056;2023-05-07T14:17:54;4.00;;;3.55;;
62687;SDS011;48752;51.056;17.056;2023-05-07T14:20:20;4.00;;;3.20;;
62687;SDS011;48752;51.056;17.056;2023-05-07T14:22:46;5.93;;;4.07;;
62687;SDS011;48752;51.056;17.056;2023-05-07T14:25:12;6.63;;;4.00;;
62687;SDS011;48752;51.056;17.056;2023-05-07T14:27:45;5.80;;;3.97;;
62687;SDS011;48752;51.056;17.056;2023-05-07T14:30:11;4.72;;;3.88;;
62687;SDS011;48752;51.056;17.056;2023-05-07T14:32:38;4.72;;;3.65;;
62687;SDS011;48752;51.056;17.056;2023-05-07T14:35:03;4.95;;;4.43;;
62687;SDS011;48752;51.056;17.056;2023-05-07T14:37:30;6.25;;;4.60;;
62687;SDS011;48752;51.056;17.056;2023-05-07T14:39:56;4.95;;;4.28;;
62687;SDS011;48752;51.056;17.056;2023-05-07T14:42:22;6.22;;;4.90;;
62687;SDS011;48752;51.056;17.056;2023-05-07T14:44:55;6.65;;;5.05;;
62687;SDS011;48752;51.056;17.056;2023-05-07T14:47:21;5.93;;;3.45;;
62687;SDS011;48752;51.056;17.056;2023-05-07T14:49:48;6.50;;;3.85;;
62687;SDS011;48752;51.056;17.056;2023-05-07T14:52:16;4.38;;;3.28;;
62687;SDS011;48752;51.056;17.056;2023-05-07T14:54:42;6.68;;;3.97;;
62687;SDS011;48752;51.056;17.056;2023-05-07T14:57:09;4.03;;;3.22;;
62687;SDS011;48752;51.056;17.056;2023-05-07T14:59:38;6.53;;;3.30;;
62687;SDS011;48752;51.056;17.056;2023-05-07T15:02:04;3.58;;;3.17;;
62687;SDS011;48752;51.056;17.056;2023-05-07T15:04:30;4.95;;;3.80;;
62687;SDS011;48752;51.056;17.056;2023-05-07T15:06:56;6.63;;;4.43;;
62687;SDS011;48752;51.056;17.056;2023-05-07T15:09:22;3.63;;;3.28;;
62687;SDS011;48752;51.056;17.056;2023-05-07T15:11:48;6.18;;;4.10;;
62687;SDS011;48752;51.056;17.056;2023-05-07T15:14:15;6.47;;;4.63;;
62687;SDS011;48752;51.056;17.056;2023-05-07T15:16:41;7.18;;;5.18;;